createdAt,value
2017-12-25T00:00:45.576Z,82.00
2017-12-25T00:03:13.068Z,81.10
2017-12-25T00:05:40.608Z,81.40
2017-12-25T00:08:09.227Z,80.80
2017-12-25T00:10:37.713Z,81.20
2017-12-25T00:13:12.652Z,81.00
2017-12-25T00:15:41.892Z,81.20
2017-12-25T00:18:09.371Z,81.40
2017-12-25T00:20:39.274Z,81.50
2017-12-25T00:23:07.544Z,81.70
2017-12-25T00:25:35.804Z,82.00
2017-12-25T00:28:03.880Z,81.90
2017-12-25T00:30:31.397Z,81.20
2017-12-25T00:32:58.903Z,82.80
2017-12-25T00:35:26.416Z,81.40
2017-12-25T00:37:53.988Z,81.40
2017-12-25T00:40:21.495Z,81.50
2017-12-25T00:42:49.059Z,81.50
2017-12-25T00:45:16.582Z,81.40
2017-12-25T00:47:44.118Z,81.40
2017-12-25T00:50:11.609Z,81.80
2017-12-25T00:52:39.133Z,81.00
2017-12-25T00:55:06.635Z,81.40
2017-12-25T00:57:34.140Z,81.90
2017-12-25T01:00:01.658Z,81.40
2017-12-25T01:02:29.280Z,81.40
2017-12-25T01:04:56.948Z,82.60
2017-12-25T01:07:25.237Z,82.90
2017-12-25T01:09:52.739Z,82.70
2017-12-25T01:12:20.242Z,82.60
2017-12-25T01:14:47.743Z,83.40
2017-12-25T01:17:16.015Z,84.00
2017-12-25T01:19:43.507Z,84.20
2017-12-25T01:22:11.088Z,84.50
2017-12-25T01:24:38.604Z,84.60
2017-12-25T01:27:06.100Z,85.00
2017-12-25T01:29:34.092Z,85.10
2017-12-25T01:32:03.092Z,86.40
2017-12-25T01:34:31.360Z,87.30
2017-12-25T01:36:58.881Z,87.60
2017-12-25T01:39:26.472Z,87.30
2017-12-25T01:41:54.036Z,88.10
2017-12-25T01:44:21.581Z,88.30
2017-12-25T01:46:55.008Z,88.60
2017-12-25T01:49:22.552Z,89.00
2017-12-25T01:51:50.449Z,88.90
2017-12-25T01:54:18.733Z,90.00
2017-12-25T01:56:46.984Z,90.00
2017-12-25T01:59:14.560Z,89.20
2017-12-25T02:01:46.888Z,89.30
2017-12-25T02:04:16.716Z,88.90
2017-12-25T02:06:50.015Z,89.30
2017-12-25T02:09:17.510Z,89.90
2017-12-25T02:11:45.816Z,89.40
2017-12-25T02:14:13.368Z,88.90
2017-12-25T02:16:40.868Z,88.80
2017-12-25T02:19:08.377Z,89.50
2017-12-25T02:21:35.918Z,88.90
2017-12-25T02:24:03.413Z,88.80
2017-12-25T02:26:30.931Z,88.90
2017-12-25T02:28:58.436Z,88.80
2017-12-25T02:31:26.112Z,88.80
2017-12-25T02:33:53.620Z,88.40
2017-12-25T02:36:21.136Z,88.60
2017-12-25T02:38:49.115Z,87.80
2017-12-25T02:41:16.661Z,87.60
2017-12-25T02:43:44.169Z,88.20
2017-12-25T02:46:11.893Z,86.70
2017-12-25T02:48:39.389Z,86.60
2017-12-25T02:51:07.664Z,87.20
2017-12-25T02:53:35.944Z,86.70
2017-12-25T02:56:04.213Z,86.70
2017-12-25T02:58:32.540Z,86.90
2017-12-25T03:01:00.065Z,86.80
2017-12-25T03:03:27.665Z,86.80
2017-12-25T03:05:55.197Z,86.80
2017-12-25T03:08:22.788Z,86.60
2017-12-25T03:10:50.458Z,86.80
2017-12-25T03:13:18.121Z,87.60
2017-12-25T03:15:45.641Z,87.00
2017-12-25T03:18:13.218Z,87.50
2017-12-25T03:20:40.729Z,87.50
2017-12-25T03:23:08.255Z,86.70
2017-12-25T03:25:35.794Z,86.60
2017-12-25T03:28:03.300Z,86.40
2017-12-25T03:30:30.797Z,87.10
2017-12-25T03:32:58.712Z,86.30
2017-12-25T03:35:26.256Z,86.70
2017-12-25T03:37:53.776Z,86.30
2017-12-25T03:40:21.679Z,86.70
2017-12-25T03:42:49.601Z,86.40
2017-12-25T03:45:17.868Z,87.80
2017-12-25T03:47:46.160Z,88.00
2017-12-25T03:50:14.589Z,87.70
2017-12-25T03:52:42.133Z,87.40
2017-12-25T03:55:09.696Z,87.30
2017-12-25T03:57:40.266Z,88.10
2017-12-25T04:00:07.793Z,87.40
2017-12-25T04:02:35.356Z,87.20
2017-12-25T04:05:02.901Z,87.20
2017-12-25T04:07:30.422Z,87.60
2017-12-25T04:09:58.684Z,88.20
2017-12-25T04:12:27.018Z,88.40
2017-12-25T04:14:54.509Z,87.80
2017-12-25T04:17:22.032Z,88.10
2017-12-25T04:19:49.941Z,88.60
2017-12-25T04:22:18.211Z,89.00
2017-12-25T04:24:45.954Z,88.60
2017-12-25T04:27:14.229Z,88.60
2017-12-25T04:29:41.757Z,88.60
2017-12-25T04:32:09.273Z,89.30
2017-12-25T04:34:36.777Z,88.60
2017-12-25T04:37:04.690Z,88.60
2017-12-25T04:39:32.233Z,88.90
2017-12-25T04:41:59.744Z,88.60
2017-12-25T04:44:28.025Z,89.30
2017-12-25T04:46:55.617Z,88.50
2017-12-25T04:49:23.201Z,88.30
2017-12-25T04:51:50.712Z,88.70
2017-12-25T04:54:18.234Z,89.10
2017-12-25T04:56:46.133Z,89.70
2017-12-25T04:59:13.732Z,89.80
2017-12-25T05:01:41.289Z,89.70
2017-12-25T05:04:08.793Z,89.50
2017-12-25T05:06:36.305Z,89.40
2017-12-25T05:09:04.210Z,89.60
2017-12-25T05:11:31.730Z,89.70
2017-12-25T05:14:00.609Z,89.90
2017-12-25T05:16:28.106Z,89.30
2017-12-25T05:18:57.528Z,88.50
2017-12-25T05:21:25.803Z,88.80
2017-12-25T05:23:53.329Z,88.20
2017-12-25T05:26:20.996Z,88.40
2017-12-25T05:28:48.493Z,88.40
2017-12-25T05:31:16.781Z,88.30
2017-12-25T05:33:45.062Z,87.90
2017-12-25T05:36:12.660Z,87.10
2017-12-25T05:38:40.225Z,87.10
2017-12-25T05:41:08.120Z,86.80
2017-12-25T05:43:35.625Z,86.30
2017-12-25T05:46:04.278Z,87.10
2017-12-25T05:48:32.616Z,86.70
2017-12-25T05:51:00.124Z,86.10
2017-12-25T05:53:27.631Z,85.20
2017-12-25T05:55:55.593Z,85.00
2017-12-25T05:58:23.117Z,85.50
2017-12-25T06:00:50.708Z,85.10
2017-12-25T06:03:18.225Z,85.20
2017-12-25T06:05:46.125Z,85.60
2017-12-25T06:08:13.639Z,85.30
2017-12-25T06:10:41.572Z,85.30
2017-12-25T06:13:09.090Z,84.80
2017-12-25T06:15:36.620Z,84.60
2017-12-25T06:18:04.128Z,85.00
2017-12-25T06:20:31.809Z,84.50
2017-12-25T06:23:00.081Z,84.20
2017-12-25T06:25:27.601Z,84.20
2017-12-25T06:27:55.925Z,84.10
2017-12-25T06:30:24.765Z,82.80
2017-12-25T06:32:53.098Z,83.80
2017-12-25T06:35:21.370Z,83.70
2017-12-25T06:37:48.906Z,83.50
2017-12-25T06:40:16.404Z,84.40
2017-12-25T06:42:43.941Z,85.70
2017-12-25T06:45:11.512Z,85.50
2017-12-25T06:47:39.030Z,86.00
2017-12-25T06:50:06.546Z,86.30
2017-12-25T06:52:35.621Z,86.80
2017-12-25T06:55:03.541Z,86.10
2017-12-25T06:57:31.068Z,86.10
2017-12-25T06:59:58.612Z,86.80
2017-12-25T07:02:26.158Z,87.10
2017-12-25T07:04:53.722Z,87.60
2017-12-25T07:07:21.754Z,87.50
2017-12-25T07:09:50.033Z,87.90
2017-12-25T07:12:17.743Z,88.00
2017-12-25T07:14:45.277Z,88.00
2017-12-25T07:17:12.777Z,88.50
2017-12-25T07:19:40.318Z,87.60
2017-12-25T07:22:07.946Z,87.50
2017-12-25T07:24:35.845Z,87.60
2017-12-25T07:27:03.509Z,87.20
2017-12-25T07:29:31.041Z,87.90
2017-12-25T07:31:59.033Z,88.30
2017-12-25T07:34:26.559Z,88.80
2017-12-25T07:36:54.834Z,88.80
2017-12-25T07:39:22.345Z,88.70
2017-12-25T07:41:50.651Z,88.30
2017-12-25T07:44:18.918Z,88.60
2017-12-25T07:46:46.440Z,88.40
2017-12-25T07:49:14.414Z,87.90
2017-12-25T07:51:41.971Z,88.00
2017-12-25T07:54:09.485Z,88.40
2017-12-25T07:56:37.745Z,88.70
2017-12-25T07:59:06.021Z,88.60
2017-12-25T08:01:34.312Z,89.70
2017-12-25T08:04:02.218Z,88.30
2017-12-25T08:06:29.737Z,88.90
2017-12-25T08:08:58.022Z,88.80
2017-12-25T08:11:25.545Z,88.80
2017-12-25T08:13:54.562Z,88.80
2017-12-25T08:16:22.176Z,88.30
2017-12-25T08:18:50.202Z,88.30
2017-12-25T08:21:18.477Z,89.00
2017-12-25T08:23:46.801Z,88.30
2017-12-25T08:26:14.485Z,87.70
2017-12-25T08:28:41.991Z,89.20
2017-12-25T08:31:09.506Z,88.20
2017-12-25T08:33:37.970Z,86.60
2017-12-25T08:36:05.561Z,86.60
2017-12-25T08:38:33.037Z,86.20
2017-12-25T08:41:00.743Z,86.80
2017-12-25T08:43:28.405Z,86.30
2017-12-25T08:45:55.909Z,86.50
2017-12-25T08:48:23.441Z,87.00
2017-12-25T08:50:51.095Z,86.90
2017-12-25T08:53:18.646Z,86.80
2017-12-25T08:55:46.153Z,85.60
2017-12-25T08:58:14.442Z,86.00
2017-12-25T09:00:41.946Z,86.00
2017-12-25T09:03:09.448Z,85.60
2017-12-25T09:05:36.973Z,85.10
2017-12-25T09:08:04.480Z,85.70
2017-12-25T09:10:32.073Z,84.30
2017-12-25T09:12:59.641Z,83.80
2017-12-25T09:15:27.249Z,84.80
2017-12-25T09:17:55.518Z,83.80
2017-12-25T09:20:23.794Z,82.70
2017-12-25T09:22:52.077Z,82.90
2017-12-25T09:25:20.361Z,83.10
2017-12-25T09:27:48.660Z,83.90
2017-12-25T09:30:16.934Z,82.90
2017-12-25T09:32:44.521Z,82.70
2017-12-25T09:35:12.027Z,83.20
2017-12-25T09:37:40.307Z,82.70
2017-12-25T09:40:08.587Z,83.50
2017-12-25T09:42:36.882Z,83.70
2017-12-25T09:45:04.380Z,83.70
2017-12-25T09:47:32.029Z,82.00
2017-12-25T09:49:59.643Z,81.70
2017-12-25T09:52:27.973Z,81.00
2017-12-25T09:54:55.474Z,81.00
2017-12-25T09:57:23.776Z,79.10
2017-12-25T09:59:51.279Z,92.10
2017-12-25T10:02:18.832Z,93.60
2017-12-25T10:04:46.357Z,90.10
2017-12-25T10:07:17.612Z,76.00
2017-12-25T10:09:52.574Z,71.20
2017-12-25T10:12:20.128Z,72.30
2017-12-25T10:14:47.686Z,70.00
2017-12-25T10:17:15.205Z,70.70
2017-12-25T10:19:42.882Z,73.70
2017-12-25T10:22:10.416Z,74.00
2017-12-25T10:24:38.683Z,75.40
2017-12-25T10:27:07.023Z,73.90
2017-12-25T10:29:35.533Z,73.80
2017-12-25T10:32:03.886Z,73.70
2017-12-25T10:34:31.426Z,73.80
2017-12-25T10:36:58.929Z,74.10
2017-12-25T10:39:27.321Z,74.20
2017-12-25T10:41:55.726Z,74.10
2017-12-25T10:44:23.992Z,72.90
2017-12-25T10:46:51.971Z,72.90
2017-12-25T10:49:20.095Z,73.70
2017-12-25T10:51:48.157Z,72.50
2017-12-25T10:54:16.300Z,73.10
2017-12-25T10:56:49.340Z,73.30
2017-12-25T10:59:17.345Z,71.60
2017-12-25T11:04:19.276Z,72.50
2017-12-25T11:06:46.810Z,72.40
2017-12-25T11:09:14.324Z,73.50
2017-12-25T11:11:42.672Z,74.00
2017-12-25T11:14:10.246Z,73.40
2017-12-25T11:16:37.787Z,73.60
2017-12-25T11:19:05.286Z,73.30
2017-12-25T11:21:33.549Z,72.80
2017-12-25T11:24:01.532Z,72.80
2017-12-25T11:26:29.590Z,71.30
2017-12-25T11:28:57.902Z,72.30
2017-12-25T11:31:25.937Z,72.90
2017-12-25T11:33:54.871Z,73.60
2017-12-25T11:36:22.926Z,73.50
2017-12-25T11:38:50.993Z,75.20
2017-12-25T11:41:19.289Z,75.60
2017-12-25T11:43:47.344Z,77.20
2017-12-25T11:46:16.250Z,77.30
2017-12-25T11:48:45.158Z,77.90
2017-12-25T11:51:12.829Z,77.90
2017-12-25T11:53:40.499Z,78.20
2017-12-25T11:56:08.057Z,76.80
2017-12-25T11:58:35.575Z,77.10
2017-12-25T12:01:03.283Z,76.00
2017-12-25T12:03:30.845Z,77.40
2017-12-25T12:05:58.357Z,76.70
2017-12-25T12:08:25.889Z,76.60
2017-12-25T12:10:53.388Z,75.30
2017-12-25T12:13:20.916Z,74.90
2017-12-25T12:15:49.563Z,75.40
2017-12-25T12:18:17.060Z,73.90
2017-12-25T12:20:44.565Z,74.60
2017-12-25T12:23:12.182Z,74.20
2017-12-25T12:25:39.680Z,73.60
2017-12-25T12:28:07.180Z,74.20
2017-12-25T12:30:35.461Z,72.20
2017-12-25T12:33:02.974Z,72.20
2017-12-25T12:35:30.567Z,73.10
2017-12-25T12:37:58.074Z,74.40
2017-12-25T12:40:25.614Z,75.50
2017-12-25T12:42:53.950Z,76.40
2017-12-25T12:45:21.462Z,76.40
2017-12-25T12:47:49.094Z,77.50
2017-12-25T12:50:16.633Z,76.20
2017-12-25T12:52:44.182Z,77.00
2017-12-25T12:55:11.684Z,77.30
2017-12-25T12:57:39.989Z,77.90
2017-12-25T13:00:07.680Z,77.90
2017-12-25T13:02:35.244Z,77.90
2017-12-25T13:05:02.766Z,77.30
2017-12-25T13:07:30.357Z,76.70
2017-12-25T13:09:57.920Z,76.50
2017-12-25T13:12:25.421Z,76.30
2017-12-25T13:14:53.715Z,77.10
2017-12-25T13:17:21.987Z,76.50
2017-12-25T13:19:50.266Z,77.00
2017-12-25T13:22:17.784Z,77.00
2017-12-25T13:24:45.319Z,77.60
2017-12-25T13:27:12.825Z,78.30
2017-12-25T13:29:41.092Z,78.00
2017-12-25T13:32:08.726Z,77.90
2017-12-25T13:34:36.221Z,77.50
2017-12-25T13:37:04.566Z,74.80
2017-12-25T13:39:32.129Z,74.80
2017-12-25T13:41:59.656Z,75.30
2017-12-25T13:44:27.157Z,75.80
2017-12-25T13:46:54.694Z,76.30
2017-12-25T13:49:22.253Z,74.20
2017-12-25T13:51:49.912Z,74.80
2017-12-25T13:54:18.209Z,74.80
2017-12-25T13:56:45.713Z,74.70
2017-12-25T13:59:13.234Z,75.00
2017-12-25T14:01:40.739Z,74.80
2017-12-25T14:04:08.438Z,74.90
2017-12-25T14:06:35.945Z,75.40
2017-12-25T14:09:04.216Z,78.60
2017-12-25T14:11:32.569Z,79.90
2017-12-25T14:14:00.068Z,79.90
2017-12-25T14:16:27.590Z,80.20
2017-12-25T14:18:55.097Z,81.60
2017-12-25T14:21:22.620Z,81.60
2017-12-25T14:23:50.653Z,81.70
2017-12-25T14:26:18.781Z,82.80
2017-12-25T14:28:46.853Z,83.60
2017-12-25T14:31:14.885Z,83.30
2017-12-25T14:33:43.044Z,83.70
2017-12-25T14:36:10.632Z,82.80
2017-12-25T14:38:38.141Z,82.30
2017-12-25T14:41:05.730Z,82.40
2017-12-25T14:43:33.298Z,83.00
2017-12-25T14:46:00.821Z,83.30
2017-12-25T14:48:28.418Z,83.70
2017-12-25T14:50:56.791Z,83.10
2017-12-25T14:53:24.319Z,82.90
2017-12-25T14:55:51.825Z,83.40
2017-12-25T14:58:20.936Z,83.50
2017-12-25T15:00:48.453Z,83.10
2017-12-25T15:03:15.965Z,83.50
2017-12-25T15:05:44.251Z,83.60
2017-12-25T15:08:12.676Z,83.80
2017-12-25T15:10:40.237Z,83.60
2017-12-25T15:13:07.752Z,83.80
2017-12-25T15:15:35.298Z,84.00
2017-12-25T15:18:03.653Z,84.60
2017-12-25T15:20:31.133Z,83.60
2017-12-25T15:22:59.427Z,83.80
2017-12-25T15:25:27.690Z,85.10
2017-12-25T15:27:56.018Z,85.50
2017-12-25T15:30:23.582Z,85.20
2017-12-25T15:32:51.577Z,85.30
2017-12-25T15:35:19.110Z,85.70
2017-12-25T15:37:46.617Z,86.00
2017-12-25T15:40:15.049Z,86.60
2017-12-25T15:42:42.614Z,86.50
2017-12-25T15:45:10.510Z,86.60
2017-12-25T15:47:37.964Z,86.60
2017-12-25T15:50:05.490Z,87.10
2017-12-25T15:52:33.006Z,87.10
2017-12-25T15:55:01.293Z,87.10
2017-12-25T15:57:28.809Z,87.00
2017-12-25T15:59:56.361Z,87.60
2017-12-25T16:02:23.909Z,86.90
2017-12-25T16:04:51.413Z,87.70
2017-12-25T16:07:18.919Z,87.70
2017-12-25T16:09:46.824Z,87.60
2017-12-25T16:12:15.102Z,86.90
2017-12-25T16:14:42.667Z,86.60
2017-12-25T16:17:10.176Z,87.70
2017-12-25T16:19:38.444Z,87.90
2017-12-25T16:22:06.337Z,88.10
2017-12-25T16:24:33.840Z,87.90
2017-12-25T16:27:01.377Z,88.30
2017-12-25T16:29:29.840Z,88.60
2017-12-25T16:31:57.345Z,88.60
2017-12-25T16:34:24.861Z,88.40
2017-12-25T16:36:52.377Z,88.10
2017-12-25T16:39:19.881Z,88.10
2017-12-25T16:41:47.406Z,88.30
2017-12-25T16:44:15.667Z,88.80
2017-12-25T16:46:43.181Z,88.20
2017-12-25T16:49:11.078Z,88.20
2017-12-25T16:51:38.592Z,88.50
2017-12-25T16:54:06.105Z,88.60
2017-12-25T16:56:33.617Z,88.50
2017-12-25T16:59:01.122Z,89.10
2017-12-25T17:01:28.641Z,88.30
2017-12-25T17:03:56.167Z,88.80
2017-12-25T17:06:24.441Z,89.50
2017-12-25T17:08:52.758Z,89.70
2017-12-25T17:11:20.241Z,88.60
2017-12-25T17:13:47.749Z,89.20
2017-12-25T17:16:15.274Z,89.80
2017-12-25T17:18:42.777Z,88.50
2017-12-25T17:21:10.277Z,88.50
2017-12-25T17:23:37.790Z,88.20
2017-12-25T17:26:05.321Z,88.10
2017-12-25T17:28:33.584Z,88.00
2017-12-25T17:31:01.097Z,87.30
2017-12-25T17:33:28.609Z,87.60
2017-12-25T17:35:56.109Z,87.30
2017-12-25T17:38:23.621Z,88.10
2017-12-25T17:40:51.125Z,88.60
2017-12-25T17:43:18.661Z,88.80
2017-12-25T17:45:46.160Z,89.00
2017-12-25T17:48:13.685Z,89.40
2017-12-25T17:50:41.949Z,89.20
2017-12-25T17:53:10.221Z,89.60
2017-12-25T17:55:38.507Z,89.60
2017-12-25T17:58:06.874Z,90.00
2017-12-25T18:00:34.702Z,89.50
2017-12-25T18:03:02.600Z,89.90
2017-12-25T18:05:30.100Z,90.00
2017-12-25T18:07:58.018Z,90.10
2017-12-25T18:10:25.525Z,90.10
2017-12-25T18:12:53.809Z,90.20
2017-12-25T18:15:21.313Z,90.20
2017-12-25T18:17:48.832Z,90.00
2017-12-25T18:20:16.340Z,90.20
2017-12-25T18:22:43.869Z,90.10
2017-12-25T18:25:12.042Z,90.30
2017-12-25T18:27:39.943Z,90.10
2017-12-25T18:30:07.469Z,90.30
2017-12-25T18:32:34.972Z,89.90
2017-12-25T18:35:03.245Z,90.20
2017-12-25T18:37:30.760Z,89.90
2017-12-25T18:39:58.279Z,90.10
2017-12-25T18:42:25.793Z,90.00
2017-12-25T18:44:53.302Z,90.20
2017-12-25T18:47:20.865Z,90.00
2017-12-25T18:49:48.374Z,90.10
2017-12-25T18:52:16.285Z,90.30
2017-12-25T18:54:44.549Z,90.40
2017-12-25T18:57:12.847Z,90.60
2017-12-25T18:59:40.344Z,90.50
2017-12-25T19:02:07.853Z,90.60
2017-12-25T19:04:36.146Z,90.80
2017-12-25T19:07:03.640Z,90.70
2017-12-25T19:09:31.153Z,90.80
2017-12-25T19:11:58.653Z,90.80
2017-12-25T19:14:26.218Z,90.80
2017-12-25T19:16:53.738Z,90.80
2017-12-25T19:19:21.237Z,90.80
2017-12-25T19:21:48.754Z,91.10
2017-12-25T19:24:16.663Z,90.90
2017-12-25T19:26:45.417Z,90.90
2017-12-25T19:29:13.474Z,90.60
2017-12-25T19:31:41.554Z,90.90
2017-12-25T19:34:09.621Z,91.20
2017-12-25T19:36:37.705Z,91.10
2017-12-25T19:39:05.782Z,91.30
2017-12-25T19:41:35.006Z,91.50
2017-12-25T19:44:03.078Z,91.10
2017-12-25T19:46:31.909Z,91.70
2017-12-25T19:49:00.390Z,91.50
2017-12-25T19:51:29.245Z,91.70
2017-12-25T19:53:57.313Z,91.50
2017-12-25T19:56:25.387Z,91.50
2017-12-25T19:58:53.505Z,91.50
2017-12-25T20:01:21.957Z,91.50
2017-12-25T20:03:50.017Z,91.40
2017-12-25T20:06:18.109Z,91.40
2017-12-25T20:08:46.956Z,91.70
2017-12-25T20:11:15.063Z,91.60
2017-12-25T20:13:44.638Z,92.00
2017-12-25T20:16:12.712Z,91.90
2017-12-25T20:18:40.795Z,91.60
2017-12-25T20:21:08.873Z,91.80
2017-12-25T20:23:37.338Z,92.00
2017-12-25T20:26:05.803Z,92.10
2017-12-25T20:28:33.879Z,91.90
2017-12-25T20:31:01.943Z,91.60
2017-12-25T20:33:30.022Z,91.80
2017-12-25T20:35:58.102Z,92.00
2017-12-25T20:38:26.175Z,91.90
2017-12-25T20:40:54.242Z,92.10
2017-12-25T20:43:22.316Z,92.30
2017-12-25T20:45:50.385Z,92.20
2017-12-25T20:48:18.449Z,92.20
2017-12-25T20:50:46.523Z,92.40
2017-12-25T20:53:14.587Z,92.70
2017-12-25T20:55:42.669Z,92.60
2017-12-25T20:58:10.755Z,92.90
2017-12-25T21:00:38.846Z,92.70
2017-12-25T21:03:06.914Z,92.70
2017-12-25T21:05:34.981Z,92.70
2017-12-25T21:08:03.457Z,92.70
2017-12-25T21:10:31.520Z,92.60
2017-12-25T21:12:59.885Z,92.30
2017-12-25T21:15:27.806Z,92.30
2017-12-25T21:17:55.309Z,92.60
2017-12-25T21:20:23.222Z,92.80
2017-12-25T21:22:50.720Z,93.00
2017-12-25T21:25:19.002Z,93.30
2017-12-25T21:27:46.502Z,93.10
2017-12-25T21:30:14.002Z,93.20
2017-12-25T21:32:42.284Z,93.50
2017-12-25T21:35:10.561Z,93.70
2017-12-25T21:37:38.861Z,93.90
2017-12-25T21:40:06.755Z,93.60
2017-12-25T21:42:35.019Z,93.70
2017-12-25T21:45:02.542Z,93.70
2017-12-25T21:47:30.801Z,93.90
2017-12-25T21:49:59.066Z,93.80
2017-12-25T21:52:26.601Z,93.90
2017-12-25T21:54:54.097Z,93.90
2017-12-25T21:57:22.377Z,94.10
2017-12-25T21:59:50.748Z,94.30
2017-12-25T22:02:18.267Z,93.80
2017-12-25T22:04:45.770Z,93.80
2017-12-25T22:07:13.684Z,93.80
2017-12-25T22:09:41.246Z,94.00
2017-12-25T22:12:08.763Z,94.00
2017-12-25T22:14:36.662Z,94.10
2017-12-25T22:17:04.175Z,94.00
2017-12-25T22:19:31.756Z,94.00
2017-12-25T22:22:00.101Z,94.20
2017-12-25T22:24:27.596Z,94.20
2017-12-25T22:26:55.500Z,94.10
2017-12-25T22:29:23.000Z,94.20
2017-12-25T22:31:50.525Z,94.20
2017-12-25T22:34:18.426Z,94.20
2017-12-25T22:36:45.936Z,94.10
2017-12-25T22:39:13.444Z,94.30
2017-12-25T22:41:40.965Z,94.30
2017-12-25T22:44:08.465Z,94.10
2017-12-25T22:46:35.989Z,94.20
2017-12-25T22:49:03.497Z,94.50
2017-12-25T22:51:31.014Z,94.10
2017-12-25T22:53:58.913Z,94.20
2017-12-25T22:56:26.437Z,94.20
2017-12-25T22:58:53.944Z,94.30
2017-12-25T23:01:22.217Z,94.40
2017-12-25T23:03:50.488Z,94.60
2017-12-25T23:06:18.758Z,94.60
2017-12-25T23:08:47.140Z,94.30
2017-12-25T23:11:14.670Z,94.40
2017-12-25T23:13:42.178Z,94.50
2017-12-25T23:16:10.133Z,94.50
2017-12-25T23:18:39.033Z,94.60
2017-12-25T23:21:06.529Z,94.70
2017-12-25T23:23:34.041Z,94.70
2017-12-25T23:26:01.552Z,94.80
2017-12-25T23:28:29.077Z,94.90
2017-12-25T23:30:56.588Z,95.00
2017-12-25T23:33:24.860Z,94.90
2017-12-25T23:35:52.386Z,95.00
2017-12-25T23:38:19.885Z,95.00
2017-12-25T23:40:47.408Z,95.10
2017-12-25T23:43:14.910Z,95.00
2017-12-25T23:45:42.423Z,95.00
2017-12-25T23:48:09.936Z,95.00
2017-12-25T23:50:37.441Z,95.10
2017-12-25T23:53:04.956Z,95.20
2017-12-25T23:55:32.857Z,95.20
2017-12-25T23:58:00.370Z,95.20
